Time;durP1;ratioP1;P1;durP2;ratioP2;P2;SDS_P1;SDS_P2;PMS_P1;PMS_P2;Temp;Humidity;BMP_temperature;BMP_pressure;BME280_temperature;BME280_humidity;BME280_pressure;Samples;Min_cycle;Max_cycle;Signal;HPM_P1;HPM_P2
2022/04/16 00:01:25;;;;;;;3.08;1.77;;;;;;;6.55;100.00;102169.22;5107643;28;20035;-49
2022/04/16 00:03:50;;;;;;;3.17;2.05;;;;;;;6.48;100.00;102175.97;5103156;28;20047;-46
2022/04/16 00:06:16;;;;;;;2.83;2.22;;;;;;;6.40;100.00;102178.38;5091763;28;20031;-46
2022/04/16 00:08:41;;;;;;;4.72;2.72;;;;;;;6.34;100.00;102177.06;5091671;28;20028;-48
2022/04/16 00:11:07;;;;;;;3.40;1.65;;;;;;;6.26;100.00;102178.63;5091225;28;20032;-51
2022/04/16 00:13:33;;;;;;;3.40;1.98;;;;;;;6.19;100.00;102172.16;5091499;28;20444;-49
2022/04/16 00:15:58;;;;;;;5.88;2.10;;;;;;;6.19;100.00;102170.38;5111029;28;20104;-51
2022/04/16 00:18:24;;;;;;;5.22;2.17;;;;;;;6.19;100.00;102169.53;5104551;28;20086;-50
2022/04/16 00:20:51;;;;;;;2.05;1.65;;;;;;;6.18;100.00;102163.44;5091065;28;20032;-48
2022/04/16 00:23:19;;;;;;;5.18;2.20;;;;;;;6.17;100.00;102169.66;5091152;28;20574;-48
2022/04/16 00:25:45;;;;;;;2.35;1.63;;;;;;;6.13;100.00;102180.56;5108928;28;20120;-47
2022/04/16 00:28:11;;;;;;;4.43;2.65;;;;;;;6.05;100.00;102182.00;5092970;28;20040;-49
2022/04/16 00:30:40;;;;;;;5.22;2.85;;;;;;;5.99;100.00;102178.97;5108995;28;20425;-49
2022/04/16 00:33:10;;;;;;;4.15;1.75;;;;;;;5.98;100.00;102182.59;5111244;28;20126;-47
2022/04/16 00:35:37;;;;;;;5.05;1.67;;;;;;;5.94;100.00;102186.41;5093582;28;20043;-50
2022/04/16 00:38:03;;;;;;;3.85;2.90;;;;;;;5.86;100.00;102187.81;5091845;28;20068;-50
2022/04/16 00:40:28;;;;;;;3.50;1.92;;;;;;;5.80;100.00;102179.56;5091673;28;20032;-47
2022/04/16 00:42:54;;;;;;;6.22;2.42;;;;;;;5.77;100.00;102178.00;5091282;28;20028;-46
2022/04/16 00:45:19;;;;;;;6.25;2.55;;;;;;;5.76;100.00;102181.59;5090921;28;20035;-48
2022/04/16 00:47:45;;;;;;;3.17;2.28;;;;;;;5.74;100.00;102188.75;5095999;28;20028;-46
2022/04/16 00:50:11;;;;;;;2.67;2.05;;;;;;;5.73;100.00;102183.59;5087616;28;20031;-47
2022/04/16 00:52:38;;;;;;;4.72;2.20;;;;;;;5.62;100.00;102179.16;5097437;28;20547;-51
2022/04/16 00:55:06;;;;;;;4.35;1.40;;;;;;;5.53;100.00;102183.34;5103228;28;20040;-46
2022/04/16 00:57:31;;;;;;;4.63;2.25;;;;;;;5.46;100.00;102182.97;5098004;28;20439;-47
2022/04/16 00:59:57;;;;;;;3.45;1.52;;;;;;;5.42;100.00;102186.78;5103102;28;20067;-47
2022/04/16 01:02:22;;;;;;;2.45;1.35;;;;;;;5.38;100.00;102190.59;5099287;28;20119;-50
2022/04/16 01:04:48;;;;;;;2.83;2.17;;;;;;;5.40;100.00;102183.44;5091259;28;20024;-50
2022/04/16 01:07:14;;;;;;;6.55;2.17;;;;;;;5.42;100.00;102188.56;5101300;28;20031;-46
2022/04/16 01:09:39;;;;;;;4.18;1.48;;;;;;;5.39;100.00;102187.00;5082599;28;20484;-46
2022/04/16 01:12:06;;;;;;;4.55;2.08;;;;;;;5.36;100.00;102191.66;5091445;28;20081;-48
2022/04/16 01:14:32;;;;;;;4.53;1.92;;;;;;;5.32;100.00;102200.72;5072777;28;20031;-48
2022/04/16 01:16:58;;;;;;;2.83;2.35;;;;;;;5.24;100.00;102196.91;5091263;28;20027;-49
2022/04/16 01:19:25;;;;;;;2.72;1.85;;;;;;;5.18;100.00;102199.97;5098000;28;20434;-46
2022/04/16 01:21:50;;;;;;;3.17;1.95;;;;;;;5.10;100.00;102198.88;5110322;28;20068;-46
2022/04/16 01:24:16;;;;;;;4.75;2.05;;;;;;;5.06;100.00;102195.63;5102599;28;20027;-46
2022/04/16 01:26:42;;;;;;;2.17;1.40;;;;;;;5.01;100.00;102201.22;5091095;28;20160;-48
2022/04/16 01:29:08;;;;;;;5.93;1.95;;;;;;;4.99;100.00;102194.41;5095845;28;20106;-50
2022/04/16 01:31:34;;;;;;;2.40;1.83;;;;;;;4.98;100.00;102197.97;5110086;28;20066;-48
2022/04/16 01:34:00;;;;;;;2.28;1.67;;;;;;;4.95;100.00;102188.50;5106500;28;20433;-48
2022/04/16 01:36:29;;;;;;;4.78;1.95;;;;;;;4.92;100.00;102191.38;5090664;28;20143;-50
2022/04/16 01:38:55;;;;;;;2.90;1.65;;;;;;;4.88;100.00;102196.97;5090663;28;20024;-50
2022/04/16 01:41:20;;;;;;;8.73;2.13;;;;;;;4.85;100.00;102192.75;5094394;28;20042;-50
2022/04/16 01:43:46;;;;;;;8.60;2.50;;;;;;;4.81;100.00;102192.16;5109923;28;20436;-47
2022/04/16 01:46:11;;;;;;;5.90;3.28;;;;;;;4.77;100.00;102203.00;5103302;28;20027;-46
2022/04/16 01:48:36;;;;;;;2.97;1.85;;;;;;;4.70;100.00;102200.00;5072309;28;20020;-46
2022/04/16 01:51:02;;;;;;;2.65;1.77;;;;;;;4.67;100.00;102200.19;5090632;28;20024;-47
2022/04/16 01:53:27;;;;;;;1.48;1.10;;;;;;;4.67;100.00;102196.72;5090331;28;20034;-47
2022/04/16 01:55:52;;;;;;;3.92;2.08;;;;;;;4.65;100.00;102193.41;5090187;28;20032;-46
2022/04/16 01:58:20;;;;;;;5.30;2.58;;;;;;;4.57;100.00;102186.91;5071378;28;20039;-47
2022/04/16 02:00:45;;;;;;;3.70;1.40;;;;;;;4.54;100.00;102192.38;5097080;28;20115;-46
2022/04/16 02:03:11;;;;;;;2.83;1.83;;;;;;;4.49;100.00;102181.34;5091231;28;20448;-46
2022/04/16 02:05:37;;;;;;;4.75;3.05;;;;;;;4.50;100.00;102187.44;5090359;28;20027;-46
2022/04/16 02:08:02;;;;;;;4.57;1.48;;;;;;;4.46;100.00;102185.97;5089727;28;20120;-46
2022/04/16 02:10:27;;;;;;;4.00;1.83;;;;;;;4.41;100.00;102188.91;5089678;28;20451;-46
2022/04/16 02:12:53;;;;;;;3.95;1.23;;;;;;;4.35;100.00;102184.94;5106474;28;20512;-46
2022/04/16 02:15:18;;;;;;;1.83;1.70;;;;;;;4.30;100.00;102191.47;5093913;28;20396;-47
2022/04/16 02:17:43;;;;;;;3.40;2.13;;;;;;;4.25;100.00;102194.41;5090215;28;20476;-46
2022/04/16 02:20:09;;;;;;;2.08;1.88;;;;;;;4.22;100.00;102199.91;5089713;28;20424;-47
2022/04/16 02:22:43;;;;;;;4.28;1.70;;;;;;;4.22;100.00;102199.06;5072095;28;20038;-47
2022/04/16 02:25:10;;;;;;;3.63;1.15;;;;;;;4.21;100.00;102205.25;5091970;28;20118;-48
2022/04/16 02:27:35;;;;;;;2.55;2.10;;;;;;;4.17;100.00;102199.38;5076041;28;20028;-48
2022/04/16 02:30:05;;;;;;;5.95;1.52;;;;;;;4.14;100.00;102208.31;5094606;28;20035;-48
2022/04/16 02:32:31;;;;;;;2.45;1.67;;;;;;;4.12;100.00;102206.72;5089280;28;20500;-47
2022/04/16 02:34:56;;;;;;;7.43;2.67;;;;;;;4.09;100.00;102210.41;5089423;28;20073;-48
2022/04/16 02:37:22;;;;;;;3.45;1.90;;;;;;;4.06;100.00;102221.13;5089259;28;20023;-50
2022/04/16 02:39:47;;;;;;;2.90;1.38;;;;;;;4.03;100.00;102216.09;5089184;28;20468;-48
2022/04/16 02:42:13;;;;;;;5.88;1.70;;;;;;;3.99;100.00;102221.66;5089582;28;20150;-52
2022/04/16 02:47:22;;;;;;;5.97;2.53;;;;;;;3.89;100.00;102229.31;5093835;28;20703;-49
2022/04/16 02:49:48;;;;;;;3.13;2.17;;;;;;;3.88;100.00;102227.66;5089411;28;20289;-49
2022/04/16 02:52:13;;;;;;;1.58;1.45;;;;;;;3.88;100.00;102230.25;5089385;28;20404;-46
2022/04/16 02:54:38;;;;;;;6.82;4.97;;;;;;;3.87;100.00;102232.06;5091941;28;20410;-50
2022/04/16 02:57:04;;;;;;;3.13;2.08;;;;;;;3.84;100.00;102227.00;5089636;28;20070;-49
2022/04/16 02:59:30;;;;;;;4.68;2.25;;;;;;;3.81;100.00;102231.63;5089675;28;20028;-50
2022/04/16 03:01:55;;;;;;;4.53;2.30;;;;;;;3.79;100.00;102229.09;5093210;28;20483;-46
2022/04/16 03:04:21;;;;;;;4.22;2.30;;;;;;;3.76;100.00;102229.31;5102066;28;20024;-49
2022/04/16 03:06:47;;;;;;;5.55;2.80;;;;;;;3.77;100.00;102235.38;5095427;28;20477;-46
2022/04/16 03:09:12;;;;;;;6.63;2.22;;;;;;;3.75;100.00;102232.88;5102957;28;20032;-48
2022/04/16 03:11:38;;;;;;;6.88;3.22;;;;;;;3.74;100.00;102239.06;5095494;28;20032;-50
2022/04/16 03:17:31;;;;;;;4.00;3.30;;;;;;;3.77;100.00;102238.88;5104777;28;20104;-48
2022/04/16 03:19:32;;;;;;;5.50;3.38;;;;;;;3.76;100.00;102233.72;5099548;28;20484;-49
2022/04/16 03:21:57;;;;;;;4.38;2.65;;;;;;;3.71;100.00;102226.97;5108919;28;20035;-49
2022/04/16 03:24:23;;;;;;;5.82;3.13;;;;;;;3.66;100.00;102229.06;5106175;28;20076;-49
2022/04/16 03:26:48;;;;;;;7.40;3.92;;;;;;;3.66;100.00;102225.63;5101096;28;20039;-51
2022/04/16 03:29:14;;;;;;;6.07;3.13;;;;;;;3.63;100.00;102226.66;5089400;28;20032;-47
2022/04/16 03:31:40;;;;;;;9.88;4.32;;;;;;;3.61;100.00;102222.47;5088938;28;20031;-48
2022/04/16 03:34:05;;;;;;;13.93;5.03;;;;;;;3.58;100.00;102228.75;5089799;28;20107;-49
2022/04/16 03:36:32;;;;;;;6.20;4.15;;;;;;;3.59;100.00;102221.72;5102370;28;20127;-46
2022/04/16 03:38:57;;;;;;;7.05;4.07;;;;;;;3.57;100.00;102223.63;5089216;28;20016;-49
2022/04/16 03:41:23;;;;;;;5.57;3.38;;;;;;;3.53;100.00;102222.97;5089015;28;20100;-48
2022/04/16 03:43:48;;;;;;;8.38;4.25;;;;;;;3.47;100.00;102221.59;5090547;28;20028;-48
2022/04/16 03:46:13;;;;;;;8.77;4.43;;;;;;;3.44;100.00;102223.59;5105169;28;20036;-50
2022/04/16 03:48:39;;;;;;;7.05;3.67;;;;;;;3.39;100.00;102217.81;5088066;28;20503;-47
2022/04/16 03:51:04;;;;;;;7.60;4.22;;;;;;;3.35;100.00;102224.19;5106269;28;20468;-47
2022/04/16 03:53:30;;;;;;;7.50;4.75;;;;;;;3.34;100.00;102227.78;5103409;28;20020;-51
2022/04/16 04:01:24;;;;;;;7.32;4.45;;;;;;;3.18;100.00;102234.03;5090446;28;20093;-48
2022/04/16 04:03:50;;;;;;;9.65;4.38;;;;;;;3.14;100.00;102226.44;5106142;28;20107;-46
2022/04/16 04:06:15;;;;;;;9.27;4.85;;;;;;;3.11;100.00;102229.28;5088805;28;20103;-46
2022/04/16 04:08:40;;;;;;;13.05;5.50;;;;;;;3.09;100.00;102233.78;5088639;28;20066;-48
2022/04/16 04:11:06;;;;;;;7.90;4.20;;;;;;;3.08;100.00;102235.56;5087915;28;20051;-48
2022/04/16 04:13:31;;;;;;;10.35;4.85;;;;;;;3.09;100.00;102242.47;5088220;28;20362;-46
2022/04/16 04:15:57;;;;;;;8.30;5.25;;;;;;;3.12;100.00;102247.50;5108427;28;20083;-46
2022/04/16 04:18:24;;;;;;;11.13;4.32;;;;;;;3.14;100.00;102258.75;5107962;28;20084;-50
2022/04/16 04:20:49;;;;;;;8.52;4.63;;;;;;;3.12;100.00;102252.75;5109616;28;20035;-46
2022/04/16 04:23:16;;;;;;;11.32;5.28;;;;;;;3.15;100.00;102257.81;5111198;28;20028;-48
2022/04/16 04:25:41;;;;;;;6.80;4.72;;;;;;;3.17;100.00;102255.91;5095124;28;20426;-48
2022/04/16 04:28:07;;;;;;;7.95;4.25;;;;;;;3.21;100.00;102254.78;5094820;28;20035;-46
2022/04/16 04:30:33;;;;;;;9.30;4.35;;;;;;;3.21;100.00;102257.41;5092028;28;20059;-47
2022/04/16 04:32:58;;;;;;;9.73;4.70;;;;;;;3.19;100.00;102256.66;5086050;28;20055;-47
2022/04/16 04:35:24;;;;;;;16.67;5.97;;;;;;;3.14;100.00;102268.38;5109806;28;20047;-48
2022/04/16 04:37:50;;;;;;;9.88;5.93;;;;;;;3.10;100.00;102262.53;5095407;28;20035;-46
2022/04/16 04:40:15;;;;;;;9.63;6.30;;;;;;;3.12;100.00;102265.84;5091283;28;20020;-47
2022/04/16 04:42:40;;;;;;;8.55;5.72;;;;;;;3.10;100.00;102267.75;5094621;28;20395;-47
2022/04/16 04:45:13;;;;;;;8.80;4.38;;;;;;;3.08;100.00;102274.03;5090703;28;20024;-48
2022/04/16 04:47:39;;;;;;;10.77;6.15;;;;;;;3.08;100.00;102269.63;5102602;28;20063;-48
2022/04/16 04:50:05;;;;;;;12.35;5.90;;;;;;;3.10;100.00;102273.00;5111264;28;20388;-47
2022/04/16 04:52:31;;;;;;;18.58;6.07;;;;;;;3.13;100.00;102278.03;5100261;28;20060;-50
2022/04/16 04:54:58;;;;;;;9.98;6.82;;;;;;;3.19;100.00;102285.50;5093492;28;20124;-46
2022/04/16 04:57:24;;;;;;;12.60;6.60;;;;;;;3.22;100.00;102293.16;5091514;28;20131;-47
2022/04/16 04:59:49;;;;;;;17.13;7.10;;;;;;;3.23;100.00;102287.00;5094966;28;20103;-51
2022/04/16 05:02:14;;;;;;;10.82;7.35;;;;;;;3.21;100.00;102291.50;5091045;28;20056;-47
2022/04/16 05:04:40;;;;;;;10.52;6.80;;;;;;;3.16;100.00;102282.25;5088883;28;20569;-49
2022/04/16 05:07:07;;;;;;;12.95;7.03;;;;;;;3.12;100.00;102281.59;5092090;28;20028;-49
2022/04/16 05:09:32;;;;;;;10.85;6.55;;;;;;;3.15;100.00;102291.91;5110372;28;20043;-47
2022/04/16 05:11:58;;;;;;;14.45;7.25;;;;;;;3.17;100.00;102283.91;5101831;28;20532;-47
2022/04/16 05:14:23;;;;;;;15.13;8.63;;;;;;;3.22;100.00;102292.31;5100053;28;20440;-46
2022/04/16 05:16:49;;;;;;;13.55;6.80;;;;;;;3.24;100.00;102288.66;5081068;28;20086;-51
2022/04/16 05:19:15;;;;;;;16.23;7.47;;;;;;;3.32;100.00;102287.34;5099804;28;20024;-47
2022/04/16 05:21:41;;;;;;;9.85;6.07;;;;;;;3.35;100.00;102292.38;5096973;28;20046;-49
2022/04/16 05:24:06;;;;;;;14.10;8.25;;;;;;;3.41;100.00;102287.59;5099328;28;20032;-47
2022/04/16 05:26:32;;;;;;;18.58;7.88;;;;;;;3.49;100.00;102292.34;5104495;28;20433;-48
2022/04/16 05:28:58;;;;;;;10.80;7.22;;;;;;;3.59;100.00;102295.16;5108262;28;20356;-50
2022/04/16 05:31:26;;;;;;;11.40;7.38;;;;;;;3.67;100.00;102301.59;5095817;28;20027;-50
2022/04/16 05:36:36;;;;;;;14.13;7.97;;;;;;;3.89;100.00;102303.63;5105663;28;20039;-50
2022/04/16 05:39:01;;;;;;;17.45;8.98;;;;;;;3.96;100.00;102306.69;5107902;28;20027;-46
2022/04/16 05:41:27;;;;;;;16.20;9.85;;;;;;;4.03;100.00;102310.59;5092710;28;20032;-46
2022/04/16 05:43:53;;;;;;;20.13;8.57;;;;;;;4.12;100.00;102312.56;5099510;28;20560;-47
2022/04/16 05:46:18;;;;;;;12.05;6.63;;;;;;;4.19;100.00;102318.25;5104261;28;20024;-48
2022/04/16 05:48:44;;;;;;;16.88;7.93;;;;;;;4.27;100.00;102318.56;5091480;28;20126;-48
2022/04/16 05:51:10;;;;;;;13.80;8.75;;;;;;;4.35;100.00;102312.81;5110506;28;20392;-46
2022/04/16 05:53:35;;;;;;;13.23;8.40;;;;;;;4.40;100.00;102310.69;5108688;28;20035;-46
2022/04/16 05:56:01;;;;;;;15.38;9.75;;;;;;;4.46;100.00;102315.50;5100981;28;20397;-48
2022/04/16 05:58:27;;;;;;;14.68;9.70;;;;;;;4.55;100.00;102327.19;5088675;28;20421;-48
2022/04/16 06:00:54;;;;;;;10.48;6.85;;;;;;;4.59;100.00;102329.50;5107388;28;20434;-51
2022/04/16 06:03:19;;;;;;;18.58;10.40;;;;;;;4.66;100.00;102331.69;5104249;28;20030;-48
2022/04/16 06:05:46;;;;;;;23.83;11.27;;;;;;;4.72;100.00;102334.72;5103614;28;20019;-47
2022/04/16 06:08:11;;;;;;;12.40;7.95;;;;;;;4.81;100.00;102328.81;5107834;28;20028;-51
2022/04/16 06:10:37;;;;;;;15.27;7.57;;;;;;;4.90;100.00;102329.13;5109174;28;20028;-52
2022/04/16 06:13:03;;;;;;;15.73;9.18;;;;;;;4.95;100.00;102330.47;5105480;28;20035;-47
2022/04/16 06:15:30;;;;;;;15.88;9.30;;;;;;;5.01;100.00;102339.72;5097726;28;20089;-49
2022/04/16 06:17:57;;;;;;;12.27;8.40;;;;;;;5.06;100.00;102326.22;5108336;28;20479;-51
2022/04/16 06:20:23;;;;;;;17.55;8.65;;;;;;;5.14;100.00;102329.19;5109324;28;20039;-48
2022/04/16 06:22:48;;;;;;;18.88;9.77;;;;;;;5.30;100.00;102334.16;5106596;28;20455;-47
2022/04/16 06:25:14;;;;;;;20.17;10.27;;;;;;;5.44;100.00;102339.25;5103480;28;20027;-49
2022/04/16 06:27:40;;;;;;;19.80;10.27;;;;;;;5.58;100.00;102343.53;5099808;28;20077;-48
2022/04/16 06:30:10;;;;;;;20.33;10.32;;;;;;;5.64;100.00;102335.16;5101851;28;20028;-49
2022/04/16 06:32:35;;;;;;;16.67;9.48;;;;;;;5.69;100.00;102328.59;5107624;28;20056;-48
2022/04/16 06:35:05;;;;;;;13.32;8.57;;;;;;;5.81;100.00;102341.81;5108671;28;20067;-46
2022/04/16 06:37:34;;;;;;;19.20;9.77;;;;;;;5.90;100.00;102328.78;5108379;28;20027;-46
2022/04/16 06:39:59;;;;;;;17.17;9.80;;;;;;;6.04;100.00;102337.47;5099786;28;20480;-47
2022/04/16 06:42:25;;;;;;;19.25;10.55;;;;;;;6.24;100.00;102333.31;5103750;28;20031;-50
2022/04/16 06:44:50;;;;;;;19.25;10.32;;;;;;;6.39;100.00;102336.59;5107140;28;20063;-46
2022/04/16 06:47:16;;;;;;;22.52;11.65;;;;;;;6.58;100.00;102342.09;5108521;28;20023;-47
2022/04/16 06:49:41;;;;;;;24.42;11.32;;;;;;;6.74;100.00;102339.97;5093481;28;20106;-49
2022/04/16 06:52:06;;;;;;;30.35;14.07;;;;;;;6.99;100.00;102343.28;5090334;28;20110;-48
2022/04/16 06:54:32;;;;;;;30.08;12.90;;;;;;;7.25;100.00;102338.53;5091566;28;20034;-46
2022/04/16 06:56:57;;;;;;;29.35;13.18;;;;;;;7.41;100.00;102348.72;5084434;28;20034;-47
2022/04/16 06:59:22;;;;;;;23.88;12.95;;;;;;;7.54;100.00;102340.66;5099425;28;20105;-46
2022/04/16 07:01:48;;;;;;;23.27;12.73;;;;;;;7.65;100.00;102341.44;5102154;28;20020;-49
2022/04/16 07:04:13;;;;;;;22.63;12.70;;;;;;;7.73;100.00;102332.03;5100876;28;20708;-49
2022/04/16 07:06:42;;;;;;;25.55;13.35;;;;;;;7.80;100.00;102327.94;5096538;28;20046;-47
2022/04/16 07:09:08;;;;;;;25.67;12.20;;;;;;;7.90;100.00;102326.19;5099598;28;20031;-47
2022/04/16 07:11:33;;;;;;;28.40;12.52;;;;;;;7.99;100.00;102328.06;5100497;28;20023;-46
2022/04/16 07:13:59;;;;;;;31.67;13.40;;;;;;;8.07;100.00;102322.97;5097704;28;20044;-47
2022/04/16 07:16:24;;;;;;;24.92;12.50;;;;;;;8.24;100.00;102326.81;5101545;28;20042;-51
2022/04/16 07:18:49;;;;;;;22.00;11.85;;;;;;;8.44;100.00;102333.09;5093586;28;20061;-48
2022/04/16 07:21:15;;;;;;;31.05;15.60;;;;;;;8.63;100.00;102327.03;5099296;28;20023;-47
2022/04/16 07:23:40;;;;;;;27.45;12.68;;;;;;;8.86;100.00;102327.69;5089704;28;20043;-47
2022/04/16 07:26:05;;;;;;;24.25;12.77;;;;;;;9.06;100.00;102330.38;5099756;28;20042;-49
2022/04/16 07:28:31;;;;;;;31.10;14.63;;;;;;;9.22;100.00;102322.75;5105875;28;20054;-47
2022/04/16 07:30:56;;;;;;;26.33;12.75;;;;;;;9.38;100.00;102327.50;5103880;28;20388;-51
2022/04/16 07:33:21;;;;;;;26.45;12.93;;;;;;;9.65;100.00;102315.38;5092612;28;20038;-47
2022/04/16 07:35:47;;;;;;;28.27;15.57;;;;;;;9.78;100.00;102311.47;5099388;28;20035;-48
2022/04/16 07:38:12;;;;;;;33.35;14.50;;;;;;;9.95;100.00;102317.03;5098783;28;20085;-48
2022/04/16 07:40:38;;;;;;;23.83;12.07;;;;;;;10.10;100.00;102318.25;5105198;28;20031;-49
2022/04/16 07:43:04;;;;;;;21.23;11.07;;;;;;;10.28;100.00;102306.94;5105307;28;20110;-47
2022/04/16 07:45:29;;;;;;;24.35;11.27;;;;;;;10.48;100.00;102300.59;5105701;28;20024;-49
2022/04/16 07:47:55;;;;;;;21.92;12.68;;;;;;;10.63;100.00;102303.59;5106231;28;20107;-49
2022/04/16 07:50:21;;;;;;;19.30;10.25;;;;;;;10.82;100.00;102308.81;5098514;28;20032;-48
2022/04/16 07:52:47;;;;;;;22.85;11.50;;;;;;;11.08;100.00;102298.31;5099587;28;20028;-47
2022/04/16 07:55:12;;;;;;;15.60;8.65;;;;;;;11.20;100.00;102295.44;5097323;28;20023;-47
2022/04/16 07:57:38;;;;;;;15.57;8.60;;;;;;;11.33;100.00;102283.47;5108949;28;20027;-52
2022/04/16 08:00:05;;;;;;;20.20;9.32;;;;;;;11.46;100.00;102283.09;5102978;28;20028;-47
2022/04/16 08:02:31;;;;;;;16.80;8.05;;;;;;;11.62;100.00;102276.25;5106835;28;20584;-48
2022/04/16 08:04:56;;;;;;;17.15;9.52;;;;;;;11.72;100.00;102279.59;5105172;28;20027;-47
2022/04/16 08:07:21;;;;;;;22.15;9.77;;;;;;;11.79;100.00;102276.19;5106260;28;20454;-52
2022/04/16 08:09:47;;;;;;;20.90;9.80;;;;;;;11.90;100.00;102268.97;5103472;28;20110;-51
2022/04/16 08:12:12;;;;;;;15.48;7.90;;;;;;;12.03;100.00;102273.88;5101059;28;20469;-47
2022/04/16 08:14:37;;;;;;;17.27;8.68;;;;;;;12.13;100.00;102269.28;5101921;28;20555;-53
2022/04/16 08:17:03;;;;;;;19.50;8.93;;;;;;;12.28;100.00;102265.03;5101944;28;20059;-47
2022/04/16 08:19:29;;;;;;;21.65;9.10;;;;;;;12.39;100.00;102259.47;5098851;28;20036;-51
2022/04/16 08:21:55;;;;;;;16.02;8.13;;;;;;;12.53;100.00;102263.34;5104169;28;20078;-50
2022/04/16 08:26:51;;;;;;;16.48;8.77;;;;;;;12.78;100.00;102264.25;5107554;28;20559;-49
2022/04/16 08:29:17;;;;;;;18.80;10.10;;;;;;;12.82;100.00;102252.28;5104484;28;20065;-49
2022/04/16 08:31:42;;;;;;;17.27;9.18;;;;;;;12.93;100.00;102252.97;5091352;28;20115;-54
2022/04/16 08:34:08;;;;;;;21.25;9.80;;;;;;;13.05;100.00;102252.50;5096661;28;20032;-50
2022/04/16 08:36:33;;;;;;;25.80;10.23;;;;;;;13.13;100.00;102258.84;5095629;28;20024;-50
2022/04/16 08:38:58;;;;;;;19.63;10.43;;;;;;;13.22;100.00;102263.19;5099813;28;20037;-50
2022/04/16 08:41:26;;;;;;;20.85;12.02;;;;;;;13.28;100.00;102260.69;5104259;28;20065;-50
2022/04/16 08:43:53;;;;;;;19.15;10.45;;;;;;;13.28;100.00;102270.53;5094485;28;20027;-49
2022/04/16 08:46:19;;;;;;;20.65;10.82;;;;;;;13.41;100.00;102267.38;5101105;28;20039;-48
2022/04/16 08:48:44;;;;;;;19.17;10.68;;;;;;;13.48;100.00;102274.53;5101364;28;20500;-48
2022/04/16 08:51:11;;;;;;;21.48;12.35;;;;;;;13.62;100.00;102265.03;5105255;28;20392;-46
2022/04/16 08:53:37;;;;;;;24.13;12.57;;;;;;;13.79;100.00;102265.03;5090924;28;20027;-52
2022/04/16 08:56:03;;;;;;;17.38;10.25;;;;;;;13.95;100.00;102260.50;5104161;28;20027;-49
2022/04/16 08:58:31;;;;;;;18.88;12.23;;;;;;;14.09;100.00;102253.63;5099478;28;20037;-53
2022/04/16 09:00:57;;;;;;;25.65;12.82;;;;;;;14.18;100.00;102260.59;5097990;28;20035;-48
2022/04/16 09:03:30;;;;;;;25.63;12.82;;;;;;;14.30;100.00;102258.41;5082675;28;20024;-50
2022/04/16 09:05:56;;;;;;;23.75;12.90;;;;;;;14.40;100.00;102259.03;5101950;28;20084;-50
2022/04/16 09:08:28;;;;;;;20.13;12.05;;;;;;;14.36;100.00;102257.72;5104924;28;20028;-48
2022/04/16 09:11:12;;;;;;;20.42;12.93;;;;;;;14.49;100.00;102259.00;5095247;28;20039;-51
2022/04/16 09:13:50;;;;;;;22.60;12.32;;;;;;;14.63;100.00;102262.78;5100283;28;20028;-48
2022/04/16 09:16:16;;;;;;;22.92;12.43;;;;;;;14.64;100.00;102256.44;5085196;28;20120;-48
2022/04/16 09:18:52;;;;;;;19.77;11.93;;;;;;;14.81;100.00;102256.19;5102237;28;20388;-52
2022/04/16 09:21:27;;;;;;;20.63;12.65;;;;;;;14.94;100.00;102252.94;5096176;28;20369;-49
2022/04/16 09:24:00;;;;;;;21.10;12.45;;;;;;;15.09;100.00;102246.84;5101424;28;20038;-50
2022/04/16 09:26:37;;;;;;;23.55;13.38;;;;;;;15.23;100.00;102243.38;5105528;28;20027;-49
2022/04/16 09:29:14;;;;;;;17.77;11.68;;;;;;;15.32;100.00;102236.97;5103321;28;20023;-51
2022/04/16 09:31:43;;;;;;;19.42;12.20;;;;;;;15.49;100.00;102232.34;5101418;28;20075;-52
2022/04/16 09:34:23;;;;;;;21.60;11.10;;;;;;;15.60;100.00;102226.53;5107424;28;20035;-48
2022/04/16 09:36:50;;;;;;;15.52;9.25;;;;;;;15.72;100.00;102224.28;5103312;28;20039;-49
2022/04/16 09:39:16;;;;;;;20.25;11.75;;;;;;;15.96;100.00;102219.69;5100768;28;20167;-54
2022/04/16 09:41:44;;;;;;;11.80;8.40;;;;;;;16.14;100.00;102225.50;5084469;28;20054;-47
2022/04/16 09:44:20;;;;;;;17.42;10.32;;;;;;;16.22;100.00;102221.91;5105718;28;20035;-48
2022/04/16 09:46:47;;;;;;;16.70;9.00;;;;;;;16.29;100.00;102229.00;5103362;28;20093;-49
2022/04/16 09:49:13;;;;;;;21.83;11.15;;;;;;;16.36;100.00;102221.84;5093499;28;20035;-49
2022/04/16 09:51:45;;;;;;;25.35;10.07;;;;;;;16.52;100.00;102225.34;5091960;28;20521;-48
2022/04/16 09:54:13;;;;;;;18.42;10.23;;;;;;;16.66;100.00;102229.03;5097482;28;20376;-51
2022/04/16 09:56:46;;;;;;;14.75;10.00;;;;;;;16.73;100.00;102228.06;5094727;28;20415;-48
2022/04/16 09:59:14;;;;;;;14.55;9.48;;;;;;;16.89;100.00;102224.34;5086329;28;20454;-47
2022/04/16 10:01:47;;;;;;;18.45;9.90;;;;;;;17.04;100.00;102226.97;5090548;28;20028;-48
2022/04/16 10:04:16;;;;;;;20.58;10.57;;;;;;;17.14;100.00;102227.50;5087978;28;20051;-52
2022/04/16 10:06:41;;;;;;;18.08;10.30;;;;;;;17.20;100.00;102231.25;5092911;28;20024;-54
2022/04/16 10:09:22;;;;;;;14.95;10.15;;;;;;;17.27;100.00;102232.16;5085927;28;20438;-52
2022/04/16 10:14:37;;;;;;;16.80;9.85;;;;;;;17.34;100.00;102216.91;5090708;28;20197;-49
2022/04/16 10:17:02;;;;;;;14.13;8.55;;;;;;;17.52;100.00;102213.75;5099632;28;20690;-54
2022/04/16 10:19:40;;;;;;;14.05;8.45;;;;;;;17.70;100.00;102210.59;5100202;28;20532;-51
2022/04/16 10:22:06;;;;;;;15.90;9.02;;;;;;;17.79;100.00;102216.66;5098840;28;20085;-49
2022/04/16 10:24:31;;;;;;;15.65;8.88;;;;;;;17.82;100.00;102214.44;5099685;28;20031;-52
2022/04/16 10:27:04;;;;;;;12.35;8.10;;;;;;;17.94;100.00;102208.50;5104904;28;20456;-48
2022/04/16 10:29:37;;;;;;;12.40;8.43;;;;;;;17.97;100.00;102214.31;5094269;28;20020;-47
2022/04/16 10:32:14;;;;;;;11.73;8.68;;;;;;;18.14;100.00;102209.44;5095860;28;20511;-48
2022/04/16 10:34:40;;;;;;;14.32;8.02;;;;;;;18.18;100.00;102212.56;5100985;28;20115;-56
2022/04/16 10:37:07;;;;;;;17.60;9.40;;;;;;;18.18;100.00;102215.25;5099821;28;20466;-54
2022/04/16 10:39:35;;;;;;;13.60;9.40;;;;;;;18.26;100.00;102202.47;5099325;28;20035;-53
2022/04/16 10:42:02;;;;;;;15.65;8.48;;;;;;;18.26;100.00;102209.69;5077865;28;20511;-50
2022/04/16 10:44:30;;;;;;;11.07;5.85;;;;;;;18.40;100.00;102210.56;5101722;28;20160;-53
2022/04/16 10:46:58;;;;;;;9.23;6.30;;;;;;;18.67;100.00;102206.13;5103745;28;20027;-49
2022/04/16 10:49:24;;;;;;;12.85;7.88;;;;;;;18.82;100.00;102205.97;5086584;28;20109;-55
2022/04/16 10:51:52;;;;;;;10.45;5.88;;;;;;;18.77;100.00;102201.22;5095153;28;20115;-51
2022/04/16 10:54:36;;;;;;;12.25;6.50;;;;;;;18.82;100.00;102208.66;5092542;28;20042;-53
2022/04/16 10:57:02;;;;;;;11.57;6.53;;;;;;;19.00;100.00;102206.22;5087380;28;20034;-52
2022/04/16 10:59:41;;;;;;;13.30;7.53;;;;;;;19.17;100.00;102206.63;5093620;28;20142;-55
2022/04/16 11:02:24;;;;;;;16.95;8.13;;;;;;;19.22;100.00;102201.47;5099021;28;20500;-49
2022/04/16 11:05:06;;;;;;;15.68;8.68;;;;;;;19.14;100.00;102190.91;5097623;28;20032;-47
2022/04/16 11:07:35;;;;;;;8.57;6.25;;;;;;;19.14;100.00;102199.00;5094379;28;20051;-51
2022/04/16 11:10:02;;;;;;;13.25;9.23;;;;;;;19.06;100.00;102197.31;5092827;28;20462;-53
2022/04/16 11:12:29;;;;;;;12.07;6.78;;;;;;;19.00;100.00;102194.63;5097921;28;20096;-54
2022/04/16 11:14:55;;;;;;;11.32;7.65;;;;;;;19.22;100.00;102196.09;5093305;28;20051;-50
2022/04/16 11:17:21;;;;;;;12.25;6.78;;;;;;;19.34;100.00;102193.63;5096069;28;20035;-53
2022/04/16 11:19:57;;;;;;;11.95;6.40;;;;;;;19.50;100.00;102186.97;5094272;28;20036;-48
2022/04/16 11:22:22;;;;;;;10.60;6.82;;;;;;;19.73;100.00;102190.06;5085789;28;20060;-54
2022/04/16 11:24:48;;;;;;;8.68;6.38;;;;;;;19.82;100.00;102191.47;5097203;28;20032;-48
2022/04/16 11:35:25;;;;;;;11.15;6.47;;;;;;;19.87;100.00;102190.84;5093058;28;20092;-52
2022/04/16 11:37:54;;;;;;;15.50;9.43;;;;;;;20.05;100.00;102184.78;5097281;28;20027;-52
2022/04/16 11:40:20;;;;;;;15.30;11.23;;;;;;;20.34;100.00;102185.28;5097312;28;20088;-54
2022/04/16 11:42:46;;;;;;;12.27;8.10;;;;;;;20.04;100.00;102189.34;5095435;28;20039;-49